Time;durP1;ratioP1;P1;durP2;ratioP2;P2;SDS_P1;SDS_P2;PMS_P1;PMS_P2;Temp;Humidity;BMP_temperature;BMP_pressure;BME280_temperature;BME280_humidity;BME280_pressure;Samples;Min_cycle;Max_cycle;Signal;HPM_P1;HPM_P2
2021/07/22 04:15:17;;;;;;;10.53;8.77;;;;;;;13.60;90.21;99241.19;5986484;23;20853;-77
2021/07/22 04:17:44;;;;;;;12.25;8.70;;;;;;;13.65;90.30;99242.84;4935861;29;20464;-78
2021/07/22 04:20:10;;;;;;;14.38;8.85;;;;;;;13.69;90.20;99234.06;4903504;29;20024;-77
2021/07/22 04:22:37;;;;;;;10.68;8.45;;;;;;;13.85;89.63;99240.63;4919148;29;20102;-77
2021/07/22 04:25:06;;;;;;;10.15;8.10;;;;;;;14.00;89.42;99239.38;4936316;29;20102;-77
2021/07/22 04:27:36;;;;;;;18.27;8.03;;;;;;;14.04;88.73;99236.66;4917243;29;20035;-77
2021/07/22 04:30:02;;;;;;;12.75;8.63;;;;;;;13.99;89.05;99233.31;4926323;29;20031;-79
2021/07/22 04:32:27;;;;;;;12.00;8.88;;;;;;;14.00;89.23;99237.63;4927525;29;20028;-79
2021/07/22 04:34:53;;;;;;;15.23;8.73;;;;;;;14.02;88.61;99238.47;4927590;29;20066;-79
2021/07/22 04:37:18;;;;;;;16.40;8.35;;;;;;;13.96;89.52;99238.59;4926750;29;20038;-79
2021/07/22 04:39:44;;;;;;;14.60;8.82;;;;;;;13.98;89.28;99242.03;4927511;29;20058;-79
2021/07/22 04:42:09;;;;;;;11.80;9.38;;;;;;;13.93;89.15;99243.06;4910426;29;20695;-79
2021/07/22 04:44:35;;;;;;;11.25;8.45;;;;;;;14.03;88.76;99245.38;4921412;29;20044;-79
2021/07/22 04:47:00;;;;;;;16.05;9.80;;;;;;;14.09;88.20;99245.22;4923028;29;20047;-79
2021/07/22 04:49:25;;;;;;;18.27;9.75;;;;;;;13.98;88.87;99249.00;4924490;29;20115;-79
2021/07/22 04:51:51;;;;;;;16.73;9.70;;;;;;;13.98;89.50;99247.25;4908395;29;20023;-79
2021/07/22 04:54:16;;;;;;;15.88;9.35;;;;;;;14.08;89.34;99248.72;4927270;29;20031;-79
2021/07/22 04:56:42;;;;;;;20.63;9.85;;;;;;;14.12;88.88;99249.53;4925882;29;20796;-79
2021/07/22 04:59:07;;;;;;;17.58;9.43;;;;;;;14.21;88.79;99248.41;4922552;29;20050;-79
2021/07/22 05:01:32;;;;;;;13.77;9.05;;;;;;;14.40;87.83;99244.44;4920876;29;20032;-79
2021/07/22 05:03:59;;;;;;;14.48;9.65;;;;;;;14.32;87.99;99243.81;4905644;29;20461;-79
2021/07/22 05:06:25;;;;;;;19.00;8.85;;;;;;;14.42;87.77;99242.66;4923417;29;20047;-79
2021/07/22 05:08:50;;;;;;;13.68;9.15;;;;;;;14.63;86.75;99247.34;4927071;29;20952;-79
2021/07/22 05:11:16;;;;;;;14.60;9.38;;;;;;;14.77;85.88;99240.91;4926843;29;20028;-79
2021/07/22 05:13:42;;;;;;;11.93;8.40;;;;;;;14.95;85.23;99242.16;4909692;29;20558;-79
2021/07/22 05:16:08;;;;;;;12.00;8.15;;;;;;;15.08;84.62;99254.78;4923712;29;20122;-79
2021/07/22 05:18:34;;;;;;;10.45;8.18;;;;;;;15.33;83.28;99254.94;4923907;29;20027;-79
2021/07/22 05:21:04;;;;;;;11.40;9.15;;;;;;;15.48;82.64;99245.78;4926467;29;20389;-79
2021/07/22 05:23:29;;;;;;;15.10;8.20;;;;;;;15.58;82.46;99249.81;4925960;29;20032;-79
2021/07/22 05:25:55;;;;;;;11.70;7.85;;;;;;;15.39;82.71;99246.06;4926431;29;20492;-79
2021/07/22 05:28:20;;;;;;;12.55;8.60;;;;;;;15.62;82.04;99245.38;4924420;29;20032;-79
2021/07/22 05:30:45;;;;;;;10.60;7.88;;;;;;;15.79;81.10;99250.09;4926624;29;20031;-79
2021/07/22 05:33:11;;;;;;;17.80;8.48;;;;;;;15.83;80.67;99252.56;4909113;29;20039;-79
2021/07/22 05:35:36;;;;;;;12.13;7.50;;;;;;;16.03;80.21;99246.69;4926508;29;20113;-79
2021/07/22 05:38:01;;;;;;;12.05;8.73;;;;;;;15.96;79.81;99250.41;4920434;29;20059;-79
2021/07/22 05:40:27;;;;;;;36.65;16.20;;;;;;;16.38;78.68;99252.50;4921651;29;20086;-79
2021/07/22 05:42:52;;;;;;;26.55;12.40;;;;;;;16.56;77.52;99251.03;4920358;29;20036;-79
2021/07/22 05:45:17;;;;;;;85.43;28.05;;;;;;;16.67;77.20;99254.97;4921017;29;20126;-79
2021/07/22 05:47:43;;;;;;;35.65;12.85;;;;;;;16.88;76.10;99252.53;4926172;29;20024;-78
2021/07/22 05:50:08;;;;;;;28.17;11.57;;;;;;;16.89;76.35;99249.00;4926194;29;20148;-78
2021/07/22 05:52:34;;;;;;;17.80;8.65;;;;;;;16.99;76.01;99245.16;4926145;29;20030;-78
2021/07/22 05:54:59;;;;;;;11.75;8.50;;;;;;;16.80;76.05;99249.34;4909095;29;20042;-79
2021/07/22 05:57:24;;;;;;;16.58;8.88;;;;;;;16.32;78.05;99258.78;4920464;29;20039;-79
2021/07/22 05:59:50;;;;;;;15.43;9.57;;;;;;;16.30;78.52;99260.63;4926129;29;20118;-79
2021/07/22 06:02:15;;;;;;;17.08;8.48;;;;;;;16.48;77.71;99253.88;4919611;29;20032;-79
2021/07/22 06:04:41;;;;;;;12.85;8.13;;;;;;;16.93;75.96;99253.22;4920732;29;20031;-79
2021/07/22 06:07:06;;;;;;;12.10;8.02;;;;;;;17.34;74.00;99248.22;4900763;29;20409;-78
2021/07/22 06:09:31;;;;;;;11.63;8.57;;;;;;;17.33;74.48;99255.22;4921877;29;20521;-79
2021/07/22 06:11:57;;;;;;;11.77;7.90;;;;;;;17.93;72.52;99245.91;4921074;29;20051;-79
2021/07/22 06:14:23;;;;;;;10.90;7.43;;;;;;;18.34;70.81;99247.75;4924864;29;20110;-79
2021/07/22 06:16:48;;;;;;;14.85;8.25;;;;;;;18.44;69.09;99249.06;4922160;29;20042;-79
2021/07/22 06:19:14;;;;;;;11.68;7.45;;;;;;;18.71;67.33;99247.91;4922916;29;20031;-79
2021/07/22 06:21:39;;;;;;;14.13;8.10;;;;;;;18.30;68.67;99254.88;4923318;29;20106;-76
2021/07/22 06:24:05;;;;;;;10.95;8.18;;;;;;;18.22;69.95;99252.56;4905473;29;21323;-76
2021/07/22 06:26:34;;;;;;;14.77;7.45;;;;;;;18.65;69.62;99249.91;4887874;29;20965;-76
2021/07/22 06:29:00;;;;;;;;;;;;;;;18.70;68.27;99254.06;4910264;29;20090;-76
2021/07/22 06:31:26;;;;;;;16.08;8.43;;;;;;;18.58;68.08;99257.19;4912606;29;19918;-76
2021/07/22 06:33:51;;;;;;;11.68;8.02;;;;;;;18.92;66.36;99247.88;4911792;29;20505;-76
2021/07/22 06:36:17;;;;;;;10.90;7.63;;;;;;;19.00;67.37;99246.63;4909207;29;20624;-76
2021/07/22 06:38:42;;;;;;;13.13;7.47;;;;;;;19.52;66.11;99249.47;4911223;29;20036;-77
2021/07/22 06:41:10;;;;;;;14.85;7.30;;;;;;;19.94;64.58;99247.53;4910415;29;20543;-85
2021/07/22 06:43:35;;;;;;;12.38;7.63;;;;;;;19.81;63.32;99238.53;4927604;29;20123;-85
2021/07/22 06:46:01;;;;;;;11.10;7.75;;;;;;;20.28;63.19;99249.34;4928499;29;20123;-86
2021/07/22 06:48:26;;;;;;;12.32;8.13;;;;;;;20.19;64.00;99249.81;4928089;29;20537;-85
2021/07/22 06:50:52;;;;;;;11.55;7.32;;;;;;;20.35;61.49;99250.72;4927781;29;20052;-85
2021/07/22 06:53:18;;;;;;;13.07;7.85;;;;;;;20.83;61.18;99245.69;4882114;29;20048;-77
2021/07/22 06:55:43;;;;;;;15.05;7.53;;;;;;;21.28;59.38;99248.53;4900968;29;20024;-77
2021/07/22 06:58:19;;;;;;;9.60;7.00;;;;;;;21.94;58.26;99241.38;4888415;29;20521;-77
2021/07/22 07:00:44;;;;;;;12.73;7.18;;;;;;;22.79;54.54;99240.81;4883718;29;21090;-77
2021/07/22 07:03:10;;;;;;;11.13;6.60;;;;;;;23.88;51.95;99239.31;4891829;29;20063;-77
2021/07/22 07:05:35;;;;;;;12.50;6.18;;;;;;;25.18;47.80;99234.00;4908921;29;20111;-85
2021/07/22 07:08:01;;;;;;;7.45;5.97;;;;;;;26.75;44.71;99231.31;4908835;29;20028;-86
2021/07/22 07:10:27;;;;;;;10.52;6.10;;;;;;;27.64;42.67;99230.44;4908988;29;20075;-85
2021/07/22 07:12:53;;;;;;;11.32;6.00;;;;;;;26.08;46.01;99239.91;4908119;29;20107;-86
2021/07/22 07:15:19;;;;;;;10.48;6.20;;;;;;;25.96;45.37;99236.31;4909703;29;20094;-86
2021/07/22 07:17:45;;;;;;;11.90;6.05;;;;;;;25.50;46.76;99238.81;4909256;29;20033;-86
2021/07/22 07:20:11;;;;;;;12.57;5.95;;;;;;;26.75;43.96;99237.47;4907717;29;20028;-86
2021/07/22 07:22:36;;;;;;;6.57;5.85;;;;;;;27.64;41.54;99235.75;4908012;29;20027;-86
2021/07/22 07:25:02;;;;;;;11.55;6.85;;;;;;;25.61;45.19;99241.53;4908964;29;20119;-86
2021/07/22 07:27:27;;;;;;;15.65;6.38;;;;;;;27.07;43.88;99239.41;4909733;29;20059;-85
2021/07/22 07:29:52;;;;;;;18.67;6.78;;;;;;;28.50;40.42;99236.69;4909505;29;20032;-86
2021/07/22 07:32:18;;;;;;;10.52;5.82;;;;;;;30.27;36.97;99234.41;4908784;29;20032;-86
2021/07/22 07:34:43;;;;;;;8.77;5.70;;;;;;;31.11;35.11;99228.31;4910108;29;20059;-86
2021/07/22 07:37:08;;;;;;;7.93;4.95;;;;;;;30.81;36.17;99232.91;4890805;29;20048;-86
2021/07/22 07:39:37;;;;;;;6.82;5.20;;;;;;;31.89;34.13;99221.56;4909284;29;20028;-86
2021/07/22 07:42:03;;;;;;;12.57;5.97;;;;;;;31.61;32.85;99223.41;4906817;29;20098;-86
2021/07/22 07:44:28;;;;;;;11.13;5.55;;;;;;;30.49;34.59;99221.69;4907231;29;20039;-86
2021/07/22 07:46:54;;;;;;;8.35;5.43;;;;;;;30.83;35.06;99222.91;4908450;29;20059;-86
2021/07/22 07:49:19;;;;;;;9.05;5.82;;;;;;;30.42;35.57;99219.59;4908653;29;20047;-86
2021/07/22 07:51:44;;;;;;;8.57;5.55;;;;;;;31.17;33.72;99211.63;4908872;29;20114;-85
2021/07/22 07:54:11;;;;;;;12.00;6.13;;;;;;;30.84;35.11;99216.56;4909917;29;20757;-86
2021/07/22 07:56:37;;;;;;;7.10;5.22;;;;;;;31.27;34.08;99215.13;4906021;29;20051;-86
2021/07/22 07:59:02;;;;;;;7.97;5.13;;;;;;;31.66;33.75;99218.44;4899242;29;20474;-86
2021/07/22 08:01:29;;;;;;;8.07;5.88;;;;;;;31.48;33.56;99214.91;4908468;29;20055;-86
2021/07/22 08:03:56;;;;;;;7.05;6.07;;;;;;;31.32;33.66;99210.19;4906658;29;20043;-86
2021/07/22 08:06:22;;;;;;;11.18;5.88;;;;;;;31.35;33.75;99211.72;4907266;29;20028;-86
2021/07/22 08:08:47;;;;;;;8.32;5.55;;;;;;;31.39;34.08;99211.28;4907745;29;20082;-86
2021/07/22 08:11:12;;;;;;;8.25;5.50;;;;;;;32.31;33.22;99207.50;4907292;29;20032;-85
2021/07/22 08:13:38;;;;;;;8.55;5.57;;;;;;;30.54;34.77;99208.72;4907515;29;20063;-86
2021/07/22 08:16:05;;;;;;;10.43;5.32;;;;;;;31.66;33.87;99201.50;4907956;29;20522;-86
2021/07/22 08:18:30;;;;;;;8.68;5.07;;;;;;;29.51;38.09;99203.91;4906148;29;20036;-86
2021/07/22 08:20:56;;;;;;;13.45;5.15;;;;;;;33.45;31.24;99192.09;4909886;29;20024;-86
2021/07/22 08:23:21;;;;;;;14.80;6.07;;;;;;;32.36;32.01;99199.88;4907604;29;20044;-86
2021/07/22 08:25:47;;;;;;;11.77;5.45;;;;;;;33.59;30.55;99195.16;4906660;29;20036;-86
2021/07/22 08:28:13;;;;;;;6.57;5.15;;;;;;;32.83;31.66;99193.28;4908296;29;20083;-86
2021/07/22 08:30:39;;;;;;;11.85;5.15;;;;;;;31.26;34.18;99194.69;4909018;29;20032;-87
2021/07/22 08:33:04;;;;;;;11.18;5.22;;;;;;;29.38;37.83;99204.97;4904031;29;20032;-86
2021/07/22 08:35:29;;;;;;;5.88;5.28;;;;;;;33.84;31.28;99191.50;4906850;29;20405;-87
2021/07/22 08:37:55;;;;;;;7.25;5.28;;;;;;;33.97;29.30;99191.88;4906770;29;20446;-86
2021/07/22 08:40:20;;;;;;;8.80;5.80;;;;;;;34.31;29.35;99182.78;4906431;29;20784;-86
2021/07/22 08:42:47;;;;;;;8.68;5.13;;;;;;;34.71;29.75;99184.59;4907535;29;20426;-86
2021/07/22 08:45:14;;;;;;;7.47;4.40;;;;;;;35.95;27.03;99191.97;4908176;29;20036;-86
2021/07/22 08:47:41;;;;;;;8.43;5.15;;;;;;;33.59;30.60;99187.94;4906240;29;20421;-87
2021/07/22 08:50:08;;;;;;;10.80;5.20;;;;;;;34.95;28.61;99186.41;4907681;29;20033;-87
2021/07/22 08:52:33;;;;;;;10.70;5.07;;;;;;;35.20;28.39;99194.38;4906926;29;20024;-87
2021/07/22 08:54:59;;;;;;;12.23;5.38;;;;;;;34.00;29.34;99190.72;4892465;29;20028;-87
2021/07/22 08:57:32;;;;;;;8.52;5.10;;;;;;;34.34;29.62;99187.00;4906885;29;20170;-86
2021/07/22 08:59:58;;;;;;;10.65;5.63;;;;;;;35.11;28.71;99185.53;4907726;29;20024;-86
2021/07/22 09:02:27;;;;;;;7.32;5.03;;;;;;;33.37;30.46;99184.00;4891534;29;20147;-86
2021/07/22 09:04:57;;;;;;;8.43;5.50;;;;;;;34.49;29.68;99186.16;4904626;29;20070;-86
2021/07/22 09:07:24;;;;;;;10.63;5.20;;;;;;;33.67;30.23;99185.25;4905560;29;20379;-86
2021/07/22 09:10:07;;;;;;;12.88;5.93;;;;;;;33.74;29.94;99180.06;4892577;29;20508;-86
2021/07/22 09:12:53;;;;;;;11.70;6.60;;;;;;;34.01;29.32;99182.47;4907484;29;21024;-85
2021/07/22 09:15:24;;;;;;;8.10;5.45;;;;;;;34.71;28.81;99178.38;4904137;29;20039;-78
2021/07/22 09:17:52;;;;;;;11.07;5.32;;;;;;;34.42;28.55;99174.34;4905089;29;20063;-77
2021/07/22 09:20:35;;;;;;;7.28;5.20;;;;;;;35.36;27.57;99180.03;4880968;29;20043;-80
2021/07/22 09:23:02;;;;;;;7.05;4.88;;;;;;;35.37;28.38;99179.81;4904096;29;20032;-80
2021/07/22 09:25:37;;;;;;;6.80;4.72;;;;;;;34.31;30.44;99177.41;4901084;29;20035;-79
2021/07/22 09:28:03;;;;;;;8.85;5.45;;;;;;;35.25;28.39;99186.66;4903139;29;20039;-77
2021/07/22 09:30:29;;;;;;;6.28;5.25;;;;;;;35.93;26.49;99177.81;4905602;29;20036;-78
2021/07/22 09:32:54;;;;;;;6.43;5.18;;;;;;;35.99;27.19;99179.81;4904762;29;20028;-77
2021/07/22 09:35:22;;;;;;;10.23;5.53;;;;;;;35.89;25.69;99179.19;4904290;29;20035;-77
2021/07/22 09:37:52;;;;;;;10.45;4.75;;;;;;;36.02;26.48;99174.06;4902715;29;20036;-77
2021/07/22 09:40:31;;;;;;;9.15;5.20;;;;;;;34.85;27.34;99166.88;4905269;29;20032;-77
2021/07/22 09:42:57;;;;;;;9.32;5.60;;;;;;;35.90;26.84;99164.69;4902790;29;20052;-77
2021/07/22 09:45:25;;;;;;;9.15;4.97;;;;;;;35.83;26.57;99163.75;4906391;29;20036;-80
2021/07/22 09:47:56;;;;;;;8.20;4.82;;;;;;;34.59;29.29;99163.63;4904768;29;20032;-80
2021/07/22 09:50:24;;;;;;;12.90;5.00;;;;;;;34.08;29.05;99171.03;4905679;29;20067;-80
2021/07/22 09:53:07;;;;;;;8.30;4.80;;;;;;;32.60;33.48;99160.78;4905890;29;20032;-80
2021/07/22 09:55:34;;;;;;;7.72;5.35;;;;;;;34.52;29.51;99155.38;4904191;29;20043;-80
2021/07/22 09:58:01;;;;;;;7.25;4.88;;;;;;;34.43;27.54;99159.91;4903236;29;20103;-80
2021/07/22 10:00:28;;;;;;;9.93;5.23;;;;;;;35.37;26.70;99149.34;4888307;29;20036;-80
2021/07/22 10:02:55;;;;;;;9.55;4.97;;;;;;;36.30;25.94;99149.19;4895150;29;20039;-80
2021/07/22 10:05:29;;;;;;;6.93;4.82;;;;;;;35.99;26.21;99155.53;4903421;29;20031;-80
2021/07/22 10:07:56;;;;;;;6.18;4.60;;;;;;;37.24;25.38;99141.41;4901966;29;20028;-80
2021/07/22 10:10:22;;;;;;;5.85;5.03;;;;;;;34.54;29.00;99155.22;4888326;29;20024;-86
2021/07/22 10:12:58;;;;;;;8.77;4.53;;;;;;;36.62;27.08;99147.22;4904816;29;20028;-76
2021/07/22 10:15:27;;;;;;;8.40;4.95;;;;;;;37.65;24.24;99140.81;4902621;29;20434;-80
2021/07/22 10:17:56;;;;;;;;;;;;;;;37.14;25.12;99130.88;4902788;29;20031;-86
2021/07/22 10:20:26;;;;;;;6.70;5.10;;;;;;;35.43;26.88;99135.97;4903967;29;19923;-80
2021/07/22 10:22:51;;;;;;;7.78;5.20;;;;;;;35.78;27.75;99134.63;4904109;29;20051;-78
2021/07/22 10:25:17;;;;;;;7.78;5.05;;;;;;;36.79;25.48;99127.91;4885385;29;20036;-77
2021/07/22 10:27:43;;;;;;;10.65;4.80;;;;;;;35.51;27.31;99127.88;4902115;29;20553;-77
2021/07/22 10:30:19;;;;;;;7.28;5.80;;;;;;;36.67;26.09;99125.88;4895172;29;20027;-81
2021/07/22 10:32:54;;;;;;;10.05;5.32;;;;;;;37.51;24.59;99121.75;4889086;29;20035;-80
2021/07/22 10:35:27;;;;;;;12.57;7.43;;;;;;;36.65;26.01;99126.06;4885325;29;20038;-77
2021/07/22 10:38:23;;;;;;;8.63;4.85;;;;;;;34.90;27.09;99120.59;4903779;29;20036;-77
2021/07/22 10:40:52;;;;;;;8.25;4.78;;;;;;;35.27;27.06;99115.38;4890373;29;20149;-80
2021/07/22 10:43:29;;;;;;;8.35;5.00;;;;;;;34.39;29.11;99110.13;4905674;29;20040;-80
2021/07/22 10:45:55;;;;;;;8.52;5.20;;;;;;;34.63;27.00;99113.81;4900442;29;20059;-79
2021/07/22 10:48:28;;;;;;;7.55;4.72;;;;;;;34.48;27.97;99109.13;4900926;29;20393;-79
2021/07/22 10:50:53;;;;;;;10.30;5.43;;;;;;;35.65;26.15;99112.78;4888488;29;20062;-80
2021/07/22 10:53:50;;;;;;;7.47;5.07;;;;;;;36.77;25.28;99102.13;4885934;29;20114;-80
2021/07/22 10:56:25;;;;;;;6.60;5.05;;;;;;;37.02;25.54;99100.78;4902389;29;20032;-86
2021/07/22 10:58:57;;;;;;;5.50;4.97;;;;;;;37.19;23.96;99103.28;4888589;29;20555;-80
2021/07/22 11:01:41;;;;;;;7.25;5.07;;;;;;;36.90;24.96;99102.31;4887565;29;20033;-80
2021/07/22 11:04:07;;;;;;;8.15;4.15;;;;;;;36.80;26.33;99102.59;4906175;29;20066;-81
2021/07/22 11:06:58;;;;;;;7.90;4.90;;;;;;;35.50;25.78;99104.66;4889758;29;20393;-77
2021/07/22 11:09:58;;;;;;;6.72;4.97;;;;;;;36.45;25.45;99104.16;4903313;29;21351;-77
2021/07/22 11:12:32;;;;;;;9.63;5.10;;;;;;;36.09;24.95;99100.47;4871153;29;20036;-77
2021/07/22 11:14:59;;;;;;;6.68;5.53;;;;;;;35.94;26.82;99097.72;4889047;29;20640;-78
2021/07/22 11:17:32;;;;;;;5.68;4.70;;;;;;;34.69;26.79;99094.25;4891499;29;20934;-78
2021/07/22 11:20:32;;;;;;;8.27;5.50;;;;;;;34.71;27.97;99092.22;4905964;29;20032;-78
2021/07/22 11:22:58;;;;;;;7.63;5.03;;;;;;;34.66;27.25;99089.22;4878054;29;20044;-77
2021/07/22 11:25:25;;;;;;;6.13;5.28;;;;;;;36.61;26.16;99086.13;4908463;29;20091;-80
2021/07/22 11:27:50;;;;;;;14.40;5.88;;;;;;;36.53;24.89;99079.78;4904815;29;20446;-80
2021/07/22 11:30:18;;;;;;;8.32;5.50;;;;;;;33.67;27.82;99087.66;4892691;29;20038;-79
2021/07/22 11:32:43;;;;;;;7.97;5.50;;;;;;;32.24;32.70;99077.69;4895674;29;20029;-79
2021/07/22 11:35:09;;;;;;;8.00;5.78;;;;;;;34.33;28.80;99067.78;4906111;29;20030;-83
2021/07/22 11:37:35;;;;;;;7.25;5.07;;;;;;;34.84;27.63;99070.97;4907728;29;20028;-84
2021/07/22 11:40:07;;;;;;;8.90;5.25;;;;;;;36.18;26.65;99075.09;4909794;29;20536;-84
2021/07/22 11:42:45;;;;;;;7.72;5.65;;;;;;;35.70;25.38;99071.81;4909540;29;20028;-80
2021/07/22 11:45:11;;;;;;;14.07;6.25;;;;;;;35.91;25.17;99069.25;4890343;29;20066;-80
2021/07/22 11:47:36;;;;;;;12.02;5.80;;;;;;;36.13;25.91;99072.13;4891707;29;20036;-80
2021/07/22 11:50:02;;;;;;;6.63;5.72;;;;;;;36.77;23.90;99069.69;4909442;29;20074;-79
2021/07/22 11:52:29;;;;;;;8.18;5.70;;;;;;;33.20;28.36;99064.88;4907941;29;20107;-79
2021/07/22 11:55:08;;;;;;;7.80;5.85;;;;;;;35.41;25.55;99067.94;4907521;29;20031;-80
2021/07/22 11:57:38;;;;;;;10.82;6.10;;;;;;;35.05;27.04;99067.66;4906876;29;20026;-84
2021/07/22 12:00:15;;;;;;;10.13;5.93;;;;;;;35.66;25.86;99054.31;4908083;29;20379;-84
2021/07/22 12:02:46;;;;;;;7.60;5.88;;;;;;;34.41;27.35;99053.44;4893308;29;20028;-84
2021/07/22 12:05:12;;;;;;;16.05;6.03;;;;;;;32.44;29.99;99049.66;4907928;29;20036;-79
2021/07/22 12:07:37;;;;;;;14.75;6.43;;;;;;;30.81;32.21;99056.31;4911231;29;20032;-84
2021/07/22 12:10:04;;;;;;;12.52;6.72;;;;;;;30.42;34.10;99051.09;4893520;29;20115;-79
2021/07/22 12:12:29;;;;;;;10.10;6.07;;;;;;;30.78;35.24;99040.53;4907703;29;20050;-84
2021/07/22 12:15:08;;;;;;;13.88;6.68;;;;;;;30.60;34.13;99042.28;4910140;29;20482;-76
2021/07/22 12:17:34;;;;;;;7.60;5.63;;;;;;;31.46;33.66;99032.88;4906546;29;20040;-80
2021/07/22 12:20:00;;;;;;;15.95;6.57;;;;;;;30.94;34.27;99039.88;4906491;29;20052;-80
2021/07/22 12:22:27;;;;;;;16.52;12.95;;;;;;;30.91;34.50;99033.00;4906161;29;20047;-79
2021/07/22 12:25:07;;;;;;;14.50;6.00;;;;;;;30.13;35.53;99029.81;4906247;29;20052;-79
2021/07/22 12:27:51;;;;;;;12.73;6.47;;;;;;;30.83;34.12;99027.53;4908035;29;20044;-80
2021/07/22 12:30:24;;;;;;;15.90;10.40;;;;;;;30.20;33.86;99020.22;4889558;29;20489;-80
2021/07/22 12:32:52;;;;;;;17.90;8.35;;;;;;;30.07;34.57;99019.66;4909654;29;20028;-77
2021/07/22 12:35:45;;;;;;;11.43;6.63;;;;;;;30.25;34.50;99011.75;4909247;29;20482;-85
2021/07/22 12:38:25;;;;;;;12.93;6.95;;;;;;;30.53;35.26;99011.78;4907365;29;20305;-80
2021/07/22 12:40:56;;;;;;;10.70;6.90;;;;;;;30.32;33.84;99010.19;4890885;29;20060;-79
2021/07/22 12:43:24;;;;;;;10.52;7.57;;;;;;;30.45;33.71;99010.69;4906235;29;20039;-80
2021/07/22 12:45:53;;;;;;;12.00;7.13;;;;;;;30.14;34.68;98998.59;4904958;29;20098;-79
2021/07/22 12:48:35;;;;;;;8.63;6.10;;;;;;;30.22;34.48;99006.72;4904102;29;20035;-79
2021/07/22 12:51:08;;;;;;;13.27;6.63;;;;;;;30.39;35.61;98997.06;4890409;29;20037;-79
2021/07/22 12:53:33;;;;;;;10.73;6.65;;;;;;;29.94;36.45;98998.63;4903089;29;20028;-80
2021/07/22 12:55:59;;;;;;;12.73;7.30;;;;;;;29.10;36.99;98992.22;4904381;29;20108;-79
2021/07/22 12:58:32;;;;;;;12.75;6.85;;;;;;;29.16;37.57;98997.84;4887107;29;20028;-79
2021/07/22 13:01:02;;;;;;;11.50;6.68;;;;;;;30.18;34.40;98995.47;4907371;29;20084;-79
2021/07/22 13:03:29;;;;;;;11.95;6.65;;;;;;;29.82;35.20;98991.75;4890765;29;20039;-79
2021/07/22 13:05:54;;;;;;;11.50;6.93;;;;;;;29.68;35.23;98989.53;4904469;29;20027;-79
2021/07/22 13:08:20;;;;;;;9.10;7.10;;;;;;;29.67;35.77;98986.03;4902827;29;20029;-79
2021/07/22 13:10:45;;;;;;;10.55;7.85;;;;;;;29.41;35.21;98984.91;4904198;29;20036;-79
2021/07/22 13:13:10;;;;;;;9.05;7.15;;;;;;;29.69;35.35;98983.22;4889772;29;20485;-79
2021/07/22 13:15:36;;;;;;;8.60;6.85;;;;;;;29.44;34.97;98979.28;4884720;29;20121;-79
2021/07/22 13:18:01;;;;;;;10.75;6.95;;;;;;;29.70;35.36;98977.72;4904980;29;20034;-79
2021/07/22 13:20:26;;;;;;;12.18;6.85;;;;;;;28.83;36.64;98977.72;4902614;29;20556;-79
2021/07/22 13:22:52;;;;;;;8.05;6.85;;;;;;;28.46;38.28;98981.97;4894676;29;20131;-79
2021/07/22 13:25:17;;;;;;;9.80;7.35;;;;;;;28.20;37.02;98974.44;4904748;29;20037;-79
2021/07/22 13:27:43;;;;;;;10.05;7.10;;;;;;;28.68;37.77;98976.44;4904008;29;20027;-79
2021/07/22 13:30:10;;;;;;;12.43;6.65;;;;;;;28.77;37.75;98980.94;4895634;29;20102;-81
2021/07/22 13:32:36;;;;;;;10.45;6.78;;;;;;;28.27;37.45;98972.06;4888029;29;20028;-79
2021/07/22 13:35:03;;;;;;;11.98;7.07;;;;;;;29.28;36.77;98971.84;4902112;29;20044;-80
2021/07/22 13:37:28;;;;;;;13.75;7.30;;;;;;;29.53;37.63;98958.88;4887920;29;20426;-79
2021/07/22 13:39:53;;;;;;;8.35;6.70;;;;;;;29.73;35.84;98968.56;4905942;29;20032;-79
2021/07/22 13:42:19;;;;;;;9.52;6.90;;;;;;;29.92;36.29;98967.69;4907396;29;20028;-79
2021/07/22 13:44:44;;;;;;;7.50;6.35;;;;;;;29.80;35.62;98968.84;4905792;29;20029;-80
2021/07/22 13:47:10;;;;;;;16.60;7.20;;;;;;;29.89;36.62;98963.47;4903785;29;20028;-79
2021/07/22 13:49:35;;;;;;;13.05;7.05;;;;;;;29.70;36.66;98960.88;4888991;29;20563;-79
2021/07/22 13:52:00;;;;;;;15.20;6.60;;;;;;;29.72;36.34;98961.56;4902461;29;20075;-79
2021/07/22 13:54:26;;;;;;;10.70;6.65;;;;;;;29.49;39.24;98960.16;4904806;29;20039;-79
2021/07/22 13:56:51;;;;;;;10.77;6.72;;;;;;;29.91;35.27;98956.16;4903591;29;20024;-79
2021/07/22 13:59:16;;;;;;;8.02;6.75;;;;;;;29.60;36.73;98952.03;4905731;29;20032;-79
2021/07/22 14:01:42;;;;;;;9.13;7.13;;;;;;;28.85;38.89;98949.06;4903845;29;20101;-80
2021/07/22 14:04:07;;;;;;;9.23;6.80;;;;;;;29.40;37.12;98946.69;4904324;29;20449;-80
2021/07/22 14:06:33;;;;;;;12.18;7.07;;;;;;;29.06;38.26;98954.31;4904487;29;20028;-81
2021/07/22 14:08:58;;;;;;;9.63;6.95;;;;;;;28.52;38.78;98949.44;4905167;29;20063;-80
2021/07/22 14:11:23;;;;;;;10.05;7.70;;;;;;;28.49;38.35;98955.06;4905299;29;20067;-80
2021/07/22 14:13:49;;;;;;;12.60;7.57;;;;;;;28.50;37.27;98941.59;4903755;29;20405;-80
2021/07/22 14:16:14;;;;;;;9.23;7.13;;;;;;;28.51;38.66;98937.09;4903508;29;20597;-80
2021/07/22 14:18:40;;;;;;;9.75;7.28;;;;;;;29.20;37.10;98939.69;4903923;29;21234;-81
2021/07/22 14:21:06;;;;;;;7.82;6.45;;;;;;;29.68;35.44;98933.44;4903510;29;20131;-81
2021/07/22 14:23:32;;;;;;;9.43;7.30;;;;;;;29.57;35.71;98936.28;4905686;29;20099;-81
2021/07/22 14:25:57;;;;;;;9.23;7.40;;;;;;;29.59;35.52;98934.31;4903442;29;20526;-80
2021/07/22 14:28:22;;;;;;;11.68;6.65;;;;;;;29.59;36.00;98928.97;4904281;29;20038;-81
2021/07/22 14:30:47;;;;;;;10.60;6.07;;;;;;;28.86;35.05;98931.22;4906617;29;20032;-80
2021/07/22 14:33:13;;;;;;;12.40;7.05;;;;;;;29.41;34.94;98926.19;4903600;29;20038;-81
2021/07/22 14:35:39;;;;;;;9.52;6.93;;;;;;;29.37;35.12;98925.63;4903770;29;20031;-82
2021/07/22 14:38:04;;;;;;;10.07;8.02;;;;;;;28.07;36.79;98933.84;4904363;29;21336;-81
2021/07/22 14:40:29;;;;;;;10.48;8.57;;;;;;;28.18;37.12;98925.75;4886827;29;20389;-81
2021/07/22 14:42:55;;;;;;;12.02;9.43;;;;;;;28.98;36.60;98923.97;4905457;29;20102;-81
2021/07/22 14:45:20;;;;;;;12.70;7.00;;;;;;;28.45;37.21;98922.50;4903821;29;20041;-81
2021/07/22 14:47:46;;;;;;;14.30;7.50;;;;;;;28.54;37.81;98920.81;4904316;29;20032;-80
2021/07/22 14:50:11;;;;;;;8.98;6.32;;;;;;;28.70;34.91;98923.78;4905507;29;20028;-80
2021/07/22 14:52:36;;;;;;;9.38;6.40;;;;;;;29.17;34.52;98915.97;4891171;29;20024;-80
2021/07/22 14:55:04;;;;;;;12.48;7.15;;;;;;;29.21;33.00;98913.84;4906003;29;20040;-80
2021/07/22 14:57:29;;;;;;;15.90;7.35;;;;;;;29.11;33.70;98913.88;4893569;29;20104;-81
2021/07/22 14:59:55;;;;;;;12.43;7.93;;;;;;;28.36;38.10;98924.16;4908316;29;20465;-81
2021/07/22 15:02:20;;;;;;;8.93;7.03;;;;;;;28.01;36.19;98919.25;4892297;29;20052;-81
2021/07/22 15:04:45;;;;;;;12.90;7.20;;;;;;;28.45;37.15;98913.66;4893483;29;20463;-80
2021/07/22 15:07:11;;;;;;;15.48;7.20;;;;;;;28.86;35.60;98915.22;4889771;29;20031;-79
2021/07/22 15:09:39;;;;;;;10.32;6.78;;;;;;;29.05;34.29;98903.75;4908441;29;20036;-81
2021/07/22 15:12:05;;;;;;;8.07;6.70;;;;;;;29.34;35.00;98903.69;4906245;29;20028;-79
2021/07/22 15:14:30;;;;;;;10.13;7.68;;;;;;;29.49;33.96;98901.41;4903547;29;20028;-81
2021/07/22 15:16:55;;;;;;;13.50;6.70;;;;;;;28.52;34.60;98912.94;4891039;29;20780;-80
2021/07/22 15:19:23;;;;;;;7.55;6.25;;;;;;;27.92;37.26;98910.25;4889010;29;20490;-81
2021/07/22 15:21:50;;;;;;;8.02;7.15;;;;;;;27.88;37.27;98906.16;4897226;29;20032;-80
2021/07/22 15:24:16;;;;;;;9.70;7.35;;;;;;;27.49;36.46;98909.56;4907162;29;20032;-81
2021/07/22 15:26:41;;;;;;;13.30;7.07;;;;;;;27.71;36.17;98900.59;4903430;29;20032;-81
2021/07/22 15:29:13;;;;;;;9.88;6.80;;;;;;;27.54;37.96;98902.03;4896911;29;20036;-81
2021/07/22 15:31:38;;;;;;;9.05;6.65;;;;;;;27.99;38.22;98904.38;4907240;29;20119;-81
2021/07/22 15:34:04;;;;;;;12.38;6.53;;;;;;;27.66;38.80;98906.31;4888747;29;20024;-80
2021/07/22 15:36:29;;;;;;;13.85;6.53;;;;;;;28.06;37.04;98910.84;4891045;29;20139;-80
2021/07/22 15:38:54;;;;;;;8.10;6.35;;;;;;;27.98;36.28;98900.03;4891027;29;20043;-80
2021/07/22 15:41:20;;;;;;;9.60;7.13;;;;;;;27.95;37.34;98908.28;4909148;29;20031;-80
2021/07/22 15:43:45;;;;;;;10.07;6.75;;;;;;;27.48;37.89;98905.22;4906602;29;20162;-80
2021/07/22 15:46:10;;;;;;;16.23;7.10;;;;;;;27.05;37.25;98908.84;4905259;29;20032;-80